Time;durP1;ratioP1;P1;durP2;ratioP2;P2;SDS_P1;SDS_P2;PMS_P1;PMS_P2;Temp;Humidity;BMP_temperature;BMP_pressure;BME280_temperature;BME280_humidity;BME280_pressure;Samples;Min_cycle;Max_cycle;Signal;HPM_P1;HPM_P2
2022/01/18 21:09:06;;;;;;;6.60;1.50;;;;;;;18.59;100.00;97580.66;7256921;19;39913;-62
2022/01/18 21:11:32;;;;;;;4.55;1.20;;;;;;;18.61;100.00;97590.03;7345825;19;20463;-61
2022/01/18 21:14:09;;;;;;;3.63;1.20;;;;;;;18.59;100.00;97576.13;7368584;19;20044;-60
2022/01/18 21:16:34;;;;;;;6.18;1.30;;;;;;;18.60;100.00;97572.31;7357169;19;20380;-61
2022/01/18 21:19:00;;;;;;;3.53;1.30;;;;;;;18.59;100.00;97568.06;7372461;19;20010;-62
2022/01/18 21:21:25;;;;;;;6.78;1.13;;;;;;;18.60;100.00;97568.84;7368724;19;20050;-61
2022/01/18 21:23:50;;;;;;;5.53;1.30;;;;;;;18.60;100.00;97563.47;7366830;19;20740;-59
2022/01/18 21:26:16;;;;;;;4.70;1.50;;;;;;;18.60;100.00;97560.78;7361280;19;20010;-61
2022/01/18 21:28:42;;;;;;;4.63;1.10;;;;;;;18.59;100.00;97557.31;7370136;19;20035;-57
2022/01/18 21:31:07;;;;;;;4.78;1.33;;;;;;;18.60;100.00;97550.84;7368592;19;20070;-60
2022/01/18 21:33:32;;;;;;;6.90;0.95;;;;;;;18.60;100.00;97547.38;7373369;19;20006;-59
2022/01/18 21:35:58;;;;;;;6.40;1.50;;;;;;;18.59;100.00;97543.91;7369718;19;20405;-60
2022/01/18 21:38:23;;;;;;;4.38;1.20;;;;;;;18.59;100.00;97533.16;7368112;19;20002;-59
2022/01/18 21:40:48;;;;;;;4.43;1.20;;;;;;;18.59;100.00;97535.03;7371595;19;20007;-63
2022/01/18 21:43:14;;;;;;;5.55;1.30;;;;;;;18.59;100.00;97530.50;7366976;19;20002;-58
2022/01/18 21:45:39;;;;;;;5.43;1.23;;;;;;;18.59;100.00;97530.50;7367123;19;20528;-62
2022/01/18 21:48:05;;;;;;;7.55;1.20;;;;;;;18.59;100.00;97519.75;7371999;19;20589;-59
2022/01/18 21:50:30;;;;;;;4.45;1.20;;;;;;;18.61;100.00;97511.38;7373250;19;20110;-60
2022/01/18 21:52:56;;;;;;;5.25;1.23;;;;;;;18.60;100.00;97510.59;7367089;19;19999;-60
2022/01/18 21:55:25;;;;;;;3.95;1.30;;;;;;;18.58;100.00;97512.78;7366678;19;20117;-62
2022/01/18 21:57:52;;;;;;;3.35;1.10;;;;;;;18.59;100.00;97511.69;7365902;19;20618;-58
2022/01/18 22:00:18;;;;;;;3.85;1.20;;;;;;;18.59;100.00;97514.38;7367994;19;20086;-61
2022/01/18 22:02:43;;;;;;;3.60;1.10;;;;;;;18.60;100.00;97509.81;7370519;19;20025;-61
2022/01/18 22:05:11;;;;;;;3.55;1.17;;;;;;;18.59;100.00;97508.19;7365191;19;20088;-62
2022/01/18 22:07:39;;;;;;;3.97;1.25;;;;;;;18.59;100.00;97500.97;7367543;19;20009;-60
2022/01/18 22:12:45;;;;;;;3.50;1.15;;;;;;;18.58;100.00;97496.69;7353879;19;20098;-63
2022/01/18 22:15:12;;;;;;;4.72;1.05;;;;;;;18.59;100.00;97492.09;7355718;19;20340;-60
2022/01/18 22:17:38;;;;;;;8.35;3.47;;;;;;;18.38;100.00;97497.19;7357199;19;20003;-61
2022/01/18 22:20:09;;;;;;;17.17;4.47;;;;;;;18.04;100.00;97503.88;7357081;19;20551;-60
2022/01/18 22:22:35;;;;;;;12.95;4.90;;;;;;;17.87;100.00;97510.69;7363833;19;20398;-59
2022/01/18 22:25:04;;;;;;;11.82;4.30;;;;;;;17.84;100.00;97499.78;7372050;19;20014;-61
2022/01/18 22:27:30;;;;;;;13.65;3.55;;;;;;;17.90;100.00;97498.56;7362847;19;20014;-59
2022/01/18 22:29:56;;;;;;;6.32;2.10;;;;;;;18.03;100.00;97503.09;7363241;19;20014;-60
2022/01/18 22:32:21;;;;;;;8.30;2.75;;;;;;;18.13;100.00;97496.69;7364515;19;20014;-62
2022/01/18 22:34:46;;;;;;;7.20;2.13;;;;;;;18.21;100.00;97505.91;7362483;19;20074;-63
2022/01/18 22:37:12;;;;;;;4.93;1.75;;;;;;;18.25;100.00;97499.63;7365697;19;20121;-59
2022/01/18 22:39:38;;;;;;;6.47;2.00;;;;;;;18.30;100.00;97505.97;7363250;19;20003;-61
2022/01/18 22:42:04;;;;;;;4.40;1.73;;;;;;;18.33;100.00;97506.16;7366660;19;20022;-61
2022/01/18 22:44:30;;;;;;;4.72;1.20;;;;;;;18.36;100.00;97508.22;7364768;19;20353;-60
2022/01/18 22:47:01;;;;;;;5.35;1.30;;;;;;;18.39;100.00;97491.53;7364877;19;20609;-64
2022/01/18 22:49:26;;;;;;;6.40;1.55;;;;;;;18.41;100.00;97483.19;7368899;19;20032;-64
2022/01/18 22:51:52;;;;;;;5.38;1.27;;;;;;;18.42;100.00;97479.38;7376210;19;20360;-61
2022/01/18 22:54:17;;;;;;;5.07;1.40;;;;;;;18.45;100.00;97473.41;7359673;19;20007;-60
2022/01/18 22:56:43;;;;;;;6.35;1.58;;;;;;;18.46;100.00;97473.09;7363874;19;20387;-61
2022/01/18 22:59:09;;;;;;;4.70;1.42;;;;;;;18.47;100.00;97472.00;7373798;19;20014;-59
2022/01/18 23:01:34;;;;;;;3.22;1.13;;;;;;;18.48;100.00;97454.00;7334428;19;20014;-59
2022/01/18 23:04:01;;;;;;;3.72;0.90;;;;;;;18.50;100.00;97465.22;7348725;19;20015;-62
2022/01/18 23:06:27;;;;;;;5.32;1.17;;;;;;;18.51;100.00;97460.63;7367106;19;20009;-62
2022/01/18 23:08:52;;;;;;;3.35;1.10;;;;;;;18.53;100.00;97463.81;7376559;19;20307;-57
2022/01/18 23:11:18;;;;;;;6.65;1.65;;;;;;;18.52;100.00;97454.97;7379666;19;20124;-58
2022/01/18 23:13:44;;;;;;;3.97;1.20;;;;;;;18.52;100.00;97456.88;7375205;19;20078;-60
2022/01/18 23:16:10;;;;;;;6.07;1.35;;;;;;;18.51;100.00;97458.75;7359275;19;20554;-58
2022/01/18 23:18:36;;;;;;;7.53;2.20;;;;;;;18.51;100.00;97444.53;7365227;19;20363;-64
2022/01/18 23:21:01;;;;;;;6.25;1.30;;;;;;;18.52;100.00;97446.91;7373906;19;20093;-61
2022/01/18 23:23:27;;;;;;;3.78;1.23;;;;;;;18.51;100.00;97445.34;7375335;19;19998;-60
2022/01/18 23:25:54;;;;;;;5.90;1.40;;;;;;;18.51;100.00;97447.22;7382178;19;20011;-58
2022/01/18 23:28:20;;;;;;;4.22;0.93;;;;;;;18.52;100.00;97443.44;7375528;19;20003;-63
2022/01/18 23:30:46;;;;;;;3.83;1.08;;;;;;;18.52;100.00;97449.59;7373002;19;20248;-65
2022/01/18 23:33:12;;;;;;;3.33;1.05;;;;;;;18.53;100.00;97448.50;7376725;19;19995;-61
2022/01/18 23:35:37;;;;;;;5.53;1.67;;;;;;;18.53;100.00;97442.34;7372394;19;20010;-62
2022/01/18 23:38:09;;;;;;;3.33;1.10;;;;;;;18.52;100.00;97444.22;7374723;19;20003;-65
2022/01/18 23:43:18;;;;;;;3.45;1.17;;;;;;;18.53;100.00;97448.50;7383432;19;20019;-63
2022/01/18 23:45:43;;;;;;;4.88;1.23;;;;;;;18.51;100.00;97439.97;7374654;19;20364;-60
2022/01/18 23:48:09;;;;;;;4.18;1.02;;;;;;;18.51;100.00;97434.63;7381916;19;20104;-59
2022/01/18 23:50:34;;;;;;;3.05;1.17;;;;;;;18.51;100.00;97421.19;7380342;19;20027;-59
2022/01/18 23:53:00;;;;;;;3.47;1.30;;;;;;;18.51;100.00;97423.88;7377693;19;20315;-63
2022/01/18 23:55:25;;;;;;;2.33;0.90;;;;;;;18.52;100.00;97416.59;7379559;19;20003;-58
2022/01/18 23:57:51;;;;;;;3.08;1.10;;;;;;;18.51;100.00;97412.31;7380109;19;20349;-57
